Аэропорт: Гомель. Гомель

ICAO: UMGG

METAR:
Информация по данной станции не доступна
METAR:
2021-01-24 15:12:00
TAF AMD UMGG 241512Z 2415/2512 14006G11MPS 2000 BR BKN010 TEMPO 2415/2509 15009G14MPS 0500 SHRA FG BKN002 BKN013CB TEMPO 2509/2512 BKN005